sensor_id;sensor_type;location;lat;lon;timestamp;P1;durP1;ratioP1;P2;durP2;ratioP2
82560;SDS011;72228;51.208;10.468;2024-01-10T00:01:42;13.95;;;6.03;;
82560;SDS011;72228;51.208;10.468;2024-01-10T00:04:08;5.68;;;4.55;;
82560;SDS011;72228;51.208;10.468;2024-01-10T00:06:34;8.98;;;5.60;;
82560;SDS011;72228;51.208;10.468;2024-01-10T00:09:00;18.10;;;4.65;;
82560;SDS011;72228;51.208;10.468;2024-01-10T00:11:26;10.23;;;7.15;;
82560;SDS011;72228;51.208;10.468;2024-01-10T00:13:52;12.82;;;4.25;;
82560;SDS011;72228;51.208;10.468;2024-01-10T00:16:18;8.23;;;4.15;;
82560;SDS011;72228;51.208;10.468;2024-01-10T00:18:44;13.38;;;7.43;;
82560;SDS011;72228;51.208;10.468;2024-01-10T00:21:10;10.65;;;6.38;;
82560;SDS011;72228;51.208;10.468;2024-01-10T00:23:36;8.00;;;4.68;;
82560;SDS011;72228;51.208;10.468;2024-01-10T00:26:02;15.35;;;6.82;;
82560;SDS011;72228;51.208;10.468;2024-01-10T00:28:28;9.52;;;4.75;;
82560;SDS011;72228;51.208;10.468;2024-01-10T00:30:54;8.35;;;4.63;;
82560;SDS011;72228;51.208;10.468;2024-01-10T00:33:19;9.30;;;4.43;;
82560;SDS011;72228;51.208;10.468;2024-01-10T00:35:45;11.88;;;6.82;;
82560;SDS011;72228;51.208;10.468;2024-01-10T00:38:11;5.85;;;4.45;;
82560;SDS011;72228;51.208;10.468;2024-01-10T00:40:38;9.55;;;5.40;;
82560;SDS011;72228;51.208;10.468;2024-01-10T00:43:04;7.25;;;3.95;;
82560;SDS011;72228;51.208;10.468;2024-01-10T00:45:30;4.28;;;3.78;;
82560;SDS011;72228;51.208;10.468;2024-01-10T00:47:56;3.95;;;3.47;;
82560;SDS011;72228;51.208;10.468;2024-01-10T00:50:22;8.68;;;6.57;;
82560;SDS011;72228;51.208;10.468;2024-01-10T00:52:48;7.45;;;3.83;;
82560;SDS011;72228;51.208;10.468;2024-01-10T00:55:14;4.40;;;4.00;;
82560;SDS011;72228;51.208;10.468;2024-01-10T00:57:40;10.75;;;6.60;;
82560;SDS011;72228;51.208;10.468;2024-01-10T01:00:06;6.35;;;4.78;;
82560;SDS011;72228;51.208;10.468;2024-01-10T01:02:33;9.43;;;5.40;;
82560;SDS011;72228;51.208;10.468;2024-01-10T01:04:59;4.25;;;3.20;;
82560;SDS011;72228;51.208;10.468;2024-01-10T01:07:25;10.80;;;5.35;;
82560;SDS011;72228;51.208;10.468;2024-01-10T01:09:51;4.80;;;2.63;;
82560;SDS011;72228;51.208;10.468;2024-01-10T01:12:17;3.63;;;3.00;;
82560;SDS011;72228;51.208;10.468;2024-01-10T01:14:43;7.32;;;4.82;;
82560;SDS011;72228;51.208;10.468;2024-01-10T01:17:09;11.55;;;8.40;;
82560;SDS011;72228;51.208;10.468;2024-01-10T01:19:35;8.27;;;4.70;;
82560;SDS011;72228;51.208;10.468;2024-01-10T01:22:01;3.92;;;3.53;;
82560;SDS011;72228;51.208;10.468;2024-01-10T01:24:27;12.95;;;3.58;;
82560;SDS011;72228;51.208;10.468;2024-01-10T01:26:53;8.38;;;4.15;;
82560;SDS011;72228;51.208;10.468;2024-01-10T01:29:19;4.32;;;3.92;;
82560;SDS011;72228;51.208;10.468;2024-01-10T01:31:46;3.45;;;3.15;;
82560;SDS011;72228;51.208;10.468;2024-01-10T01:34:12;3.35;;;2.60;;
82560;SDS011;72228;51.208;10.468;2024-01-10T01:36:38;6.57;;;4.30;;
82560;SDS011;72228;51.208;10.468;2024-01-10T01:39:04;13.57;;;4.63;;
82560;SDS011;72228;51.208;10.468;2024-01-10T01:41:31;10.40;;;5.80;;
82560;SDS011;72228;51.208;10.468;2024-01-10T01:43:57;11.98;;;6.53;;
82560;SDS011;72228;51.208;10.468;2024-01-10T01:46:23;4.50;;;4.05;;
82560;SDS011;72228;51.208;10.468;2024-01-10T01:48:49;5.68;;;3.85;;
82560;SDS011;72228;51.208;10.468;2024-01-10T01:51:15;5.55;;;4.20;;
82560;SDS011;72228;51.208;10.468;2024-01-10T01:53:44;4.90;;;4.38;;
82560;SDS011;72228;51.208;10.468;2024-01-10T01:56:11;4.22;;;3.60;;
82560;SDS011;72228;51.208;10.468;2024-01-10T01:58:38;4.53;;;4.13;;
82560;SDS011;72228;51.208;10.468;2024-01-10T02:01:05;7.88;;;4.68;;
82560;SDS011;72228;51.208;10.468;2024-01-10T02:03:31;2.97;;;2.67;;
82560;SDS011;72228;51.208;10.468;2024-01-10T02:06:16;5.90;;;4.25;;
82560;SDS011;72228;51.208;10.468;2024-01-10T02:08:42;2.90;;;2.63;;
82560;SDS011;72228;51.208;10.468;2024-01-10T02:11:08;4.95;;;4.00;;
82560;SDS011;72228;51.208;10.468;2024-01-10T02:13:34;8.10;;;5.40;;
82560;SDS011;72228;51.208;10.468;2024-01-10T02:16:01;5.85;;;3.67;;
82560;SDS011;72228;51.208;10.468;2024-01-10T02:18:28;7.40;;;4.22;;
82560;SDS011;72228;51.208;10.468;2024-01-10T02:20:54;6.45;;;5.20;;
82560;SDS011;72228;51.208;10.468;2024-01-10T02:23:20;4.88;;;4.28;;
82560;SDS011;72228;51.208;10.468;2024-01-10T02:25:46;7.40;;;4.93;;
82560;SDS011;72228;51.208;10.468;2024-01-10T02:28:12;13.00;;;7.00;;
82560;SDS011;72228;51.208;10.468;2024-01-10T02:30:38;4.55;;;3.72;;
82560;SDS011;72228;51.208;10.468;2024-01-10T02:33:03;3.33;;;2.97;;
82560;SDS011;72228;51.208;10.468;2024-01-10T02:35:29;5.38;;;4.82;;
82560;SDS011;72228;51.208;10.468;2024-01-10T02:37:58;4.90;;;3.42;;
82560;SDS011;72228;51.208;10.468;2024-01-10T02:40:24;9.75;;;4.80;;
82560;SDS011;72228;51.208;10.468;2024-01-10T02:42:50;3.97;;;3.65;;
82560;SDS011;72228;51.208;10.468;2024-01-10T02:45:19;10.30;;;4.18;;
82560;SDS011;72228;51.208;10.468;2024-01-10T02:47:45;3.83;;;2.42;;
82560;SDS011;72228;51.208;10.468;2024-01-10T02:50:11;7.93;;;2.67;;
82560;SDS011;72228;51.208;10.468;2024-01-10T02:52:37;8.80;;;5.88;;
82560;SDS011;72228;51.208;10.468;2024-01-10T02:55:05;5.05;;;3.28;;
82560;SDS011;72228;51.208;10.468;2024-01-10T02:57:32;6.35;;;4.60;;
82560;SDS011;72228;51.208;10.468;2024-01-10T02:59:57;8.85;;;4.72;;
82560;SDS011;72228;51.208;10.468;2024-01-10T03:02:23;4.32;;;3.90;;
82560;SDS011;72228;51.208;10.468;2024-01-10T03:04:49;6.10;;;4.68;;
82560;SDS011;72228;51.208;10.468;2024-01-10T03:07:15;8.13;;;6.18;;
82560;SDS011;72228;51.208;10.468;2024-01-10T03:09:41;12.70;;;5.28;;
82560;SDS011;72228;51.208;10.468;2024-01-10T03:12:08;4.53;;;3.22;;
82560;SDS011;72228;51.208;10.468;2024-01-10T03:14:36;11.68;;;3.70;;
82560;SDS011;72228;51.208;10.468;2024-01-10T03:17:02;3.47;;;3.17;;
82560;SDS011;72228;51.208;10.468;2024-01-10T03:19:28;3.60;;;3.22;;
82560;SDS011;72228;51.208;10.468;2024-01-10T03:21:53;10.52;;;4.78;;
82560;SDS011;72228;51.208;10.468;2024-01-10T03:24:19;6.25;;;4.20;;
82560;SDS011;72228;51.208;10.468;2024-01-10T03:26:45;10.15;;;6.13;;
82560;SDS011;72228;51.208;10.468;2024-01-10T03:29:11;3.72;;;3.42;;
82560;SDS011;72228;51.208;10.468;2024-01-10T03:31:37;2.38;;;2.17;;
82560;SDS011;72228;51.208;10.468;2024-01-10T03:34:03;9.02;;;4.65;;
82560;SDS011;72228;51.208;10.468;2024-01-10T03:36:29;4.30;;;3.05;;
82560;SDS011;72228;51.208;10.468;2024-01-10T03:38:55;7.00;;;6.10;;
82560;SDS011;72228;51.208;10.468;2024-01-10T03:41:20;7.25;;;4.50;;
82560;SDS011;72228;51.208;10.468;2024-01-10T03:43:47;8.35;;;2.92;;
82560;SDS011;72228;51.208;10.468;2024-01-10T03:46:13;5.82;;;4.28;;
82560;SDS011;72228;51.208;10.468;2024-01-10T03:48:39;5.13;;;2.55;;
82560;SDS011;72228;51.208;10.468;2024-01-10T03:51:15;2.97;;;2.72;;
82560;SDS011;72228;51.208;10.468;2024-01-10T03:53:41;4.47;;;3.83;;
82560;SDS011;72228;51.208;10.468;2024-01-10T03:56:07;4.03;;;2.75;;
82560;SDS011;72228;51.208;10.468;2024-01-10T03:58:33;3.30;;;2.95;;
82560;SDS011;72228;51.208;10.468;2024-01-10T04:01:00;1.55;;;1.45;;
82560;SDS011;72228;51.208;10.468;2024-01-10T04:03:29;10.10;;;4.57;;
82560;SDS011;72228;51.208;10.468;2024-01-10T04:05:55;4.18;;;3.78;;
82560;SDS011;72228;51.208;10.468;2024-01-10T04:08:21;13.38;;;3.65;;
82560;SDS011;72228;51.208;10.468;2024-01-10T04:10:47;6.50;;;4.05;;
82560;SDS011;72228;51.208;10.468;2024-01-10T04:13:12;7.55;;;3.85;;
82560;SDS011;72228;51.208;10.468;2024-01-10T04:15:38;12.10;;;6.22;;
82560;SDS011;72228;51.208;10.468;2024-01-10T04:18:04;41.67;;;13.57;;
82560;SDS011;72228;51.208;10.468;2024-01-10T04:20:30;15.23;;;9.98;;
82560;SDS011;72228;51.208;10.468;2024-01-10T04:22:56;11.27;;;4.97;;
82560;SDS011;72228;51.208;10.468;2024-01-10T04:25:22;8.50;;;4.28;;
82560;SDS011;72228;51.208;10.468;2024-01-10T04:27:47;7.72;;;4.25;;
82560;SDS011;72228;51.208;10.468;2024-01-10T04:30:15;11.10;;;4.40;;
82560;SDS011;72228;51.208;10.468;2024-01-10T04:32:41;15.65;;;6.72;;
82560;SDS011;72228;51.208;10.468;2024-01-10T04:35:07;8.63;;;5.75;;
82560;SDS011;72228;51.208;10.468;2024-01-10T04:37:33;13.95;;;5.05;;
82560;SDS011;72228;51.208;10.468;2024-01-10T04:39:59;6.18;;;5.65;;
82560;SDS011;72228;51.208;10.468;2024-01-10T04:42:25;6.15;;;3.25;;
82560;SDS011;72228;51.208;10.468;2024-01-10T04:44:50;4.55;;;4.15;;
82560;SDS011;72228;51.208;10.468;2024-01-10T04:47:17;3.35;;;3.00;;
82560;SDS011;72228;51.208;10.468;2024-01-10T04:49:42;8.68;;;3.10;;
82560;SDS011;72228;51.208;10.468;2024-01-10T04:52:08;3.78;;;2.90;;
82560;SDS011;72228;51.208;10.468;2024-01-10T04:54:34;13.20;;;3.90;;
82560;SDS011;72228;51.208;10.468;2024-01-10T04:57:00;5.82;;;5.22;;
82560;SDS011;72228;51.208;10.468;2024-01-10T04:59:26;3.80;;;3.42;;
82560;SDS011;72228;51.208;10.468;2024-01-10T05:01:52;8.73;;;3.67;;
82560;SDS011;72228;51.208;10.468;2024-01-10T05:04:17;13.55;;;5.30;;
82560;SDS011;72228;51.208;10.468;2024-01-10T05:06:43;4.90;;;2.55;;
82560;SDS011;72228;51.208;10.468;2024-01-10T05:09:09;4.47;;;3.08;;
82560;SDS011;72228;51.208;10.468;2024-01-10T05:11:36;13.55;;;5.00;;
82560;SDS011;72228;51.208;10.468;2024-01-10T05:14:02;7.65;;;4.95;;
82560;SDS011;72228;51.208;10.468;2024-01-10T05:16:28;5.13;;;4.03;;
82560;SDS011;72228;51.208;10.468;2024-01-10T05:18:54;9.65;;;4.32;;
82560;SDS011;72228;51.208;10.468;2024-01-10T05:21:20;6.88;;;4.03;;
82560;SDS011;72228;51.208;10.468;2024-01-10T05:23:47;5.35;;;4.82;;
82560;SDS011;72228;51.208;10.468;2024-01-10T05:26:13;10.02;;;7.00;;
82560;SDS011;72228;51.208;10.468;2024-01-10T05:28:39;5.13;;;4.70;;
82560;SDS011;72228;51.208;10.468;2024-01-10T05:31:05;5.47;;;4.97;;
82560;SDS011;72228;51.208;10.468;2024-01-10T05:33:31;7.28;;;3.05;;
82560;SDS011;72228;51.208;10.468;2024-01-10T05:35:57;5.95;;;5.03;;
82560;SDS011;72228;51.208;10.468;2024-01-10T05:38:23;5.32;;;3.90;;
82560;SDS011;72228;51.208;10.468;2024-01-10T05:41:08;5.43;;;4.80;;
82560;SDS011;72228;51.208;10.468;2024-01-10T05:43:34;5.25;;;4.50;;
82560;SDS011;72228;51.208;10.468;2024-01-10T05:45:59;3.67;;;2.45;;
82560;SDS011;72228;51.208;10.468;2024-01-10T05:48:25;6.30;;;3.63;;
82560;SDS011;72228;51.208;10.468;2024-01-10T05:50:51;7.60;;;4.25;;
82560;SDS011;72228;51.208;10.468;2024-01-10T05:53:17;3.90;;;3.50;;
82560;SDS011;72228;51.208;10.468;2024-01-10T05:55:43;9.07;;;4.85;;
82560;SDS011;72228;51.208;10.468;2024-01-10T05:58:10;10.38;;;4.35;;
82560;SDS011;72228;51.208;10.468;2024-01-10T06:00:37;7.45;;;4.70;;
82560;SDS011;72228;51.208;10.468;2024-01-10T06:03:03;4.15;;;3.78;;
82560;SDS011;72228;51.208;10.468;2024-01-10T06:05:29;3.50;;;3.17;;
82560;SDS011;72228;51.208;10.468;2024-01-10T06:07:57;6.60;;;3.75;;
82560;SDS011;72228;51.208;10.468;2024-01-10T06:10:22;11.65;;;4.43;;
82560;SDS011;72228;51.208;10.468;2024-01-10T06:12:48;8.10;;;5.20;;
82560;SDS011;72228;51.208;10.468;2024-01-10T06:15:14;9.52;;;4.90;;
82560;SDS011;72228;51.208;10.468;2024-01-10T06:17:40;7.05;;;4.47;;
82560;SDS011;72228;51.208;10.468;2024-01-10T06:20:06;9.77;;;5.03;;
82560;SDS011;72228;51.208;10.468;2024-01-10T06:22:32;5.68;;;3.80;;
82560;SDS011;72228;51.208;10.468;2024-01-10T06:24:59;11.27;;;3.85;;
82560;SDS011;72228;51.208;10.468;2024-01-10T06:27:25;15.35;;;5.00;;
82560;SDS011;72228;51.208;10.468;2024-01-10T06:29:52;7.15;;;5.45;;
82560;SDS011;72228;51.208;10.468;2024-01-10T06:32:17;16.45;;;6.95;;
82560;SDS011;72228;51.208;10.468;2024-01-10T06:34:43;18.00;;;4.70;;
82560;SDS011;72228;51.208;10.468;2024-01-10T06:37:10;7.47;;;5.65;;
82560;SDS011;72228;51.208;10.468;2024-01-10T06:39:35;5.70;;;4.13;;
82560;SDS011;72228;51.208;10.468;2024-01-10T06:42:02;3.92;;;3.60;;
82560;SDS011;72228;51.208;10.468;2024-01-10T06:44:31;4.10;;;3.58;;
82560;SDS011;72228;51.208;10.468;2024-01-10T06:46:57;7.55;;;4.63;;
82560;SDS011;72228;51.208;10.468;2024-01-10T06:49:23;6.00;;;4.72;;
82560;SDS011;72228;51.208;10.468;2024-01-10T06:51:49;24.88;;;5.45;;
82560;SDS011;72228;51.208;10.468;2024-01-10T06:54:18;13.25;;;5.53;;
82560;SDS011;72228;51.208;10.468;2024-01-10T06:56:44;16.80;;;5.97;;
82560;SDS011;72228;51.208;10.468;2024-01-10T06:59:11;8.63;;;4.75;;
82560;SDS011;72228;51.208;10.468;2024-01-10T07:01:37;10.00;;;5.65;;
82560;SDS011;72228;51.208;10.468;2024-01-10T07:04:04;11.10;;;5.35;;
82560;SDS011;72228;51.208;10.468;2024-01-10T07:06:30;13.38;;;6.47;;
82560;SDS011;72228;51.208;10.468;2024-01-10T07:08:57;5.75;;;5.13;;
82560;SDS011;72228;51.208;10.468;2024-01-10T07:11:23;9.48;;;4.97;;
82560;SDS011;72228;51.208;10.468;2024-01-10T07:13:50;9.80;;;6.30;;
82560;SDS011;72228;51.208;10.468;2024-01-10T07:16:16;10.63;;;7.25;;
82560;SDS011;72228;51.208;10.468;2024-01-10T07:18:42;11.60;;;6.38;;
82560;SDS011;72228;51.208;10.468;2024-01-10T07:21:08;3.55;;;3.30;;
82560;SDS011;72228;51.208;10.468;2024-01-10T07:23:34;9.40;;;6.90;;
82560;SDS011;72228;51.208;10.468;2024-01-10T07:26:01;11.32;;;5.40;;
82560;SDS011;72228;51.208;10.468;2024-01-10T07:28:27;24.48;;;9.55;;
82560;SDS011;72228;51.208;10.468;2024-01-10T07:30:52;13.20;;;4.10;;
82560;SDS011;72228;51.208;10.468;2024-01-10T07:33:18;7.65;;;4.68;;
82560;SDS011;72228;51.208;10.468;2024-01-10T07:35:44;7.55;;;6.63;;
82560;SDS011;72228;51.208;10.468;2024-01-10T07:38:10;11.52;;;7.45;;
82560;SDS011;72228;51.208;10.468;2024-01-10T07:40:36;6.38;;;5.78;;
82560;SDS011;72228;51.208;10.468;2024-01-10T07:43:02;2.90;;;2.70;;
82560;SDS011;72228;51.208;10.468;2024-01-10T07:45:28;9.25;;;5.40;;
82560;SDS011;72228;51.208;10.468;2024-01-10T07:47:54;12.65;;;2.95;;
82560;SDS011;72228;51.208;10.468;2024-01-10T07:50:20;9.85;;;6.10;;
82560;SDS011;72228;51.208;10.468;2024-01-10T07:52:47;11.05;;;7.75;;
82560;SDS011;72228;51.208;10.468;2024-01-10T07:55:13;12.02;;;6.43;;
82560;SDS011;72228;51.208;10.468;2024-01-10T07:57:39;13.55;;;7.93;;
82560;SDS011;72228;51.208;10.468;2024-01-10T08:00:08;6.68;;;5.85;;
82560;SDS011;72228;51.208;10.468;2024-01-10T08:02:37;12.48;;;6.88;;
82560;SDS011;72228;51.208;10.468;2024-01-10T08:05:04;20.17;;;9.98;;
82560;SDS011;72228;51.208;10.468;2024-01-10T08:07:34;15.02;;;6.47;;
82560;SDS011;72228;51.208;10.468;2024-01-10T08:10:04;8.40;;;6.65;;
82560;SDS011;72228;51.208;10.468;2024-01-10T08:12:30;8.43;;;4.88;;
82560;SDS011;72228;51.208;10.468;2024-01-10T08:14:57;12.52;;;6.45;;
82560;SDS011;72228;51.208;10.468;2024-01-10T08:17:23;11.75;;;8.25;;
82560;SDS011;72228;51.208;10.468;2024-01-10T08:19:49;11.68;;;8.13;;
82560;SDS011;72228;51.208;10.468;2024-01-10T08:22:15;7.38;;;6.07;;
82560;SDS011;72228;51.208;10.468;2024-01-10T08:24:41;13.18;;;7.03;;
82560;SDS011;72228;51.208;10.468;2024-01-10T08:27:06;9.65;;;4.15;;
82560;SDS011;72228;51.208;10.468;2024-01-10T08:29:33;10.10;;;6.32;;
82560;SDS011;72228;51.208;10.468;2024-01-10T08:31:59;10.75;;;6.20;;
82560;SDS011;72228;51.208;10.468;2024-01-10T08:34:25;21.92;;;6.18;;
82560;SDS011;72228;51.208;10.468;2024-01-10T08:36:52;20.40;;;8.80;;
82560;SDS011;72228;51.208;10.468;2024-01-10T08:39:18;9.70;;;7.25;;
82560;SDS011;72228;51.208;10.468;2024-01-10T08:41:45;24.55;;;9.60;;
82560;SDS011;72228;51.208;10.468;2024-01-10T08:44:11;8.50;;;7.13;;
82560;SDS011;72228;51.208;10.468;2024-01-10T08:46:37;5.10;;;4.60;;
82560;SDS011;72228;51.208;10.468;2024-01-10T08:49:03;13.68;;;5.85;;
82560;SDS011;72228;51.208;10.468;2024-01-10T08:51:29;14.02;;;6.07;;
82560;SDS011;72228;51.208;10.468;2024-01-10T08:53:54;21.05;;;7.53;;
82560;SDS011;72228;51.208;10.468;2024-01-10T08:56:22;14.70;;;5.72;;
82560;SDS011;72228;51.208;10.468;2024-01-10T08:58:49;30.67;;;3.90;;
82560;SDS011;72228;51.208;10.468;2024-01-10T09:01:15;6.15;;;4.20;;
82560;SDS011;72228;51.208;10.468;2024-01-10T09:03:41;8.73;;;5.95;;
82560;SDS011;72228;51.208;10.468;2024-01-10T09:06:07;8.13;;;6.13;;
82560;SDS011;72228;51.208;10.468;2024-01-10T09:08:33;7.60;;;4.78;;
82560;SDS011;72228;51.208;10.468;2024-01-10T09:11:00;7.38;;;5.80;;
82560;SDS011;72228;51.208;10.468;2024-01-10T09:13:26;6.10;;;4.65;;
82560;SDS011;72228;51.208;10.468;2024-01-10T09:15:51;10.13;;;9.07;;
82560;SDS011;72228;51.208;10.468;2024-01-10T09:18:17;9.10;;;4.00;;
82560;SDS011;72228;51.208;10.468;2024-01-10T09:20:44;15.95;;;7.78;;
82560;SDS011;72228;51.208;10.468;2024-01-10T09:23:10;18.77;;;6.47;;
82560;SDS011;72228;51.208;10.468;2024-01-10T09:25:36;18.00;;;10.38;;
82560;SDS011;72228;51.208;10.468;2024-01-10T09:28:04;21.77;;;8.65;;
82560;SDS011;72228;51.208;10.468;2024-01-10T09:30:31;16.48;;;9.02;;
82560;SDS011;72228;51.208;10.468;2024-01-10T09:32:57;18.73;;;8.10;;
82560;SDS011;72228;51.208;10.468;2024-01-10T09:35:24;19.52;;;9.75;;
82560;SDS011;72228;51.208;10.468;2024-01-10T09:37:50;22.83;;;10.88;;
82560;SDS011;72228;51.208;10.468;2024-01-10T09:40:16;24.17;;;9.63;;
82560;SDS011;72228;51.208;10.468;2024-01-10T09:42:43;22.90;;;7.25;;
82560;SDS011;72228;51.208;10.468;2024-01-10T09:45:10;21.80;;;11.00;;
82560;SDS011;72228;51.208;10.468;2024-01-10T09:47:39;17.45;;;11.05;;
82560;SDS011;72228;51.208;10.468;2024-01-10T09:50:05;18.15;;;10.27;;
82560;SDS011;72228;51.208;10.468;2024-01-10T09:52:34;16.45;;;8.77;;
82560;SDS011;72228;51.208;10.468;2024-01-10T09:55:07;26.88;;;11.35;;
82560;SDS011;72228;51.208;10.468;2024-01-10T09:57:34;20.15;;;10.60;;
82560;SDS011;72228;51.208;10.468;2024-01-10T10:00:02;10.45;;;5.53;;
82560;SDS011;72228;51.208;10.468;2024-01-10T10:02:32;16.38;;;7.70;;
82560;SDS011;72228;51.208;10.468;2024-01-10T10:05:08;19.27;;;11.32;;
82560;SDS011;72228;51.208;10.468;2024-01-10T10:07:43;17.67;;;6.38;;
82560;SDS011;72228;51.208;10.468;2024-01-10T10:10:12;7.32;;;5.80;;
82560;SDS011;72228;51.208;10.468;2024-01-10T10:12:43;23.02;;;7.93;;
82560;SDS011;72228;51.208;10.468;2024-01-10T10:15:10;10.55;;;8.55;;
82560;SDS011;72228;51.208;10.468;2024-01-10T10:17:42;27.05;;;9.32;;
82560;SDS011;72228;51.208;10.468;2024-01-10T10:20:34;13.80;;;9.07;;
82560;SDS011;72228;51.208;10.468;2024-01-10T10:27:58;7.75;;;5.43;;
82560;SDS011;72228;51.208;10.468;2024-01-10T10:30:26;31.42;;;11.57;;
82560;SDS011;72228;51.208;10.468;2024-01-10T10:32:56;17.70;;;6.25;;
82560;SDS011;72228;51.208;10.468;2024-01-10T10:35:22;15.85;;;9.18;;
82560;SDS011;72228;51.208;10.468;2024-01-10T10:37:48;31.58;;;14.52;;
82560;SDS011;72228;51.208;10.468;2024-01-10T10:40:16;35.65;;;10.82;;
82560;SDS011;72228;51.208;10.468;2024-01-10T10:42:44;29.92;;;11.30;;
82560;SDS011;72228;51.208;10.468;2024-01-10T10:45:15;18.58;;;9.05;;
82560;SDS011;72228;51.208;10.468;2024-01-10T10:47:43;21.92;;;7.75;;
82560;SDS011;72228;51.208;10.468;2024-01-10T10:50:54;25.35;;;13.98;;
82560;SDS011;72228;51.208;10.468;2024-01-10T10:53:02;19.90;;;12.48;;
82560;SDS011;72228;51.208;10.468;2024-01-10T10:55:29;26.08;;;11.05;;
82560;SDS011;72228;51.208;10.468;2024-01-10T10:57:55;22.55;;;11.23;;
82560;SDS011;72228;51.208;10.468;2024-01-10T11:00:22;21.10;;;11.70;;
82560;SDS011;72228;51.208;10.468;2024-01-10T11:02:53;18.30;;;9.75;;
82560;SDS011;72228;51.208;10.468;2024-01-10T11:05:20;22.60;;;12.52;;
82560;SDS011;72228;51.208;10.468;2024-01-10T11:07:47;25.45;;;12.57;;
82560;SDS011;72228;51.208;10.468;2024-01-10T11:10:16;20.50;;;8.95;;
82560;SDS011;72228;51.208;10.468;2024-01-10T11:21:37;20.15;;;10.38;;
82560;SDS011;72228;51.208;10.468;2024-01-10T11:23:49;12.52;;;9.15;;
82560;SDS011;72228;51.208;10.468;2024-01-10T11:26:16;12.15;;;9.23;;
82560;SDS011;72228;51.208;10.468;2024-01-10T11:28:44;17.52;;;11.25;;
82560;SDS011;72228;51.208;10.468;2024-01-10T11:31:10;23.90;;;9.85;;
82560;SDS011;72228;51.208;10.468;2024-01-10T11:33:39;19.15;;;11.00;;
82560;SDS011;72228;51.208;10.468;2024-01-10T11:36:07;26.83;;;12.13;;
82560;SDS011;72228;51.208;10.468;2024-01-10T11:41:05;38.35;;;13.18;;
82560;SDS011;72228;51.208;10.468;2024-01-10T11:43:31;23.30;;;11.93;;
82560;SDS011;72228;51.208;10.468;2024-01-10T11:45:57;27.42;;;12.40;;
82560;SDS011;72228;51.208;10.468;2024-01-10T11:48:28;34.42;;;13.95;;
82560;SDS011;72228;51.208;10.468;2024-01-10T11:50:56;22.80;;;12.13;;
82560;SDS011;72228;51.208;10.468;2024-01-10T11:53:40;18.05;;;11.80;;
82560;SDS011;72228;51.208;10.468;2024-01-10T11:56:14;25.95;;;15.60;;
82560;SDS011;72228;51.208;10.468;2024-01-10T12:01:20;25.70;;;12.23;;
82560;SDS011;72228;51.208;10.468;2024-01-10T12:03:48;27.60;;;13.00;;
82560;SDS011;72228;51.208;10.468;2024-01-10T12:06:17;27.27;;;14.35;;
82560;SDS011;72228;51.208;10.468;2024-01-10T12:08:45;25.98;;;13.40;;
82560;SDS011;72228;51.208;10.468;2024-01-10T12:11:11;28.98;;;14.07;;
82560;SDS011;72228;51.208;10.468;2024-01-10T12:13:37;26.63;;;13.32;;
82560;SDS011;72228;51.208;10.468;2024-01-10T12:16:03;23.00;;;12.25;;
82560;SDS011;72228;51.208;10.468;2024-01-10T12:18:30;47.38;;;16.88;;
82560;SDS011;72228;51.208;10.468;2024-01-10T12:20:56;28.33;;;12.95;;
82560;SDS011;72228;51.208;10.468;2024-01-10T12:23:22;25.73;;;13.25;;
82560;SDS011;72228;51.208;10.468;2024-01-10T12:25:48;23.48;;;10.70;;
82560;SDS011;72228;51.208;10.468;2024-01-10T12:28:17;20.15;;;12.10;;
82560;SDS011;72228;51.208;10.468;2024-01-10T12:30:43;22.30;;;9.02;;
82560;SDS011;72228;51.208;10.468;2024-01-10T12:33:09;15.05;;;9.43;;
82560;SDS011;72228;51.208;10.468;2024-01-10T12:35:35;31.10;;;14.82;;
82560;SDS011;72228;51.208;10.468;2024-01-10T12:38:03;28.30;;;14.40;;
82560;SDS011;72228;51.208;10.468;2024-01-10T12:40:28;12.43;;;7.40;;
82560;SDS011;72228;51.208;10.468;2024-01-10T12:43:04;31.40;;;14.88;;
82560;SDS011;72228;51.208;10.468;2024-01-10T12:45:30;36.10;;;13.52;;
82560;SDS011;72228;51.208;10.468;2024-01-10T12:48:00;28.08;;;13.45;;
82560;SDS011;72228;51.208;10.468;2024-01-10T12:50:27;19.08;;;10.45;;
82560;SDS011;72228;51.208;10.468;2024-01-10T12:52:53;8.73;;;5.97;;
82560;SDS011;72228;51.208;10.468;2024-01-10T12:55:20;27.45;;;11.95;;
82560;SDS011;72228;51.208;10.468;2024-01-10T12:57:47;36.00;;;12.35;;
82560;SDS011;72228;51.208;10.468;2024-01-10T13:00:13;27.95;;;11.57;;
82560;SDS011;72228;51.208;10.468;2024-01-10T13:02:40;22.23;;;12.90;;
82560;SDS011;72228;51.208;10.468;2024-01-10T13:05:06;8.77;;;6.07;;
82560;SDS011;72228;51.208;10.468;2024-01-10T13:07:35;31.55;;;12.48;;
82560;SDS011;72228;51.208;10.468;2024-01-10T13:10:02;25.08;;;11.20;;
82560;SDS011;72228;51.208;10.468;2024-01-10T13:12:28;40.13;;;11.02;;
82560;SDS011;72228;51.208;10.468;2024-01-10T13:14:54;23.10;;;11.45;;
82560;SDS011;72228;51.208;10.468;2024-01-10T13:17:20;30.13;;;14.35;;
82560;SDS011;72228;51.208;10.468;2024-01-10T13:19:47;20.90;;;10.57;;
82560;SDS011;72228;51.208;10.468;2024-01-10T13:22:16;23.33;;;10.80;;
82560;SDS011;72228;51.208;10.468;2024-01-10T13:24:45;29.60;;;11.77;;
82560;SDS011;72228;51.208;10.468;2024-01-10T13:27:11;23.10;;;12.02;;
82560;SDS011;72228;51.208;10.468;2024-01-10T13:29:38;14.32;;;9.95;;
82560;SDS011;72228;51.208;10.468;2024-01-10T13:32:04;28.25;;;15.35;;
82560;SDS011;72228;51.208;10.468;2024-01-10T13:34:31;24.10;;;11.25;;
82560;SDS011;72228;51.208;10.468;2024-01-10T13:37:00;32.45;;;15.13;;
82560;SDS011;72228;51.208;10.468;2024-01-10T13:39:27;17.20;;;8.38;;
82560;SDS011;72228;51.208;10.468;2024-01-10T13:41:53;35.13;;;15.18;;
82560;SDS011;72228;51.208;10.468;2024-01-10T13:44:20;17.27;;;9.57;;
82560;SDS011;72228;51.208;10.468;2024-01-10T13:46:46;21.08;;;10.32;;
82560;SDS011;72228;51.208;10.468;2024-01-10T13:51:40;20.35;;;10.70;;
82560;SDS011;72228;51.208;10.468;2024-01-10T13:54:06;23.63;;;10.60;;
82560;SDS011;72228;51.208;10.468;2024-01-10T13:56:32;27.20;;;11.38;;
82560;SDS011;72228;51.208;10.468;2024-01-10T13:58:59;27.23;;;10.55;;
82560;SDS011;72228;51.208;10.468;2024-01-10T14:01:25;28.35;;;12.40;;
82560;SDS011;72228;51.208;10.468;2024-01-10T14:03:51;14.45;;;8.85;;
82560;SDS011;72228;51.208;10.468;2024-01-10T14:06:18;25.48;;;9.90;;
82560;SDS011;72228;51.208;10.468;2024-01-10T14:08:44;24.17;;;12.98;;
82560;SDS011;72228;51.208;10.468;2024-01-10T14:11:13;19.77;;;10.00;;
82560;SDS011;72228;51.208;10.468;2024-01-10T14:13:39;36.13;;;18.15;;
82560;SDS011;72228;51.208;10.468;2024-01-10T14:16:05;28.85;;;13.02;;
82560;SDS011;72228;51.208;10.468;2024-01-10T14:18:31;29.55;;;12.60;;
82560;SDS011;72228;51.208;10.468;2024-01-10T14:20:58;20.58;;;11.55;;
82560;SDS011;72228;51.208;10.468;2024-01-10T14:23:24;25.52;;;13.88;;
82560;SDS011;72228;51.208;10.468;2024-01-10T14:25:50;25.08;;;12.68;;
82560;SDS011;72228;51.208;10.468;2024-01-10T14:28:19;27.70;;;13.73;;
82560;SDS011;72228;51.208;10.468;2024-01-10T14:30:49;21.02;;;10.10;;
82560;SDS011;72228;51.208;10.468;2024-01-10T14:33:14;29.40;;;13.65;;
82560;SDS011;72228;51.208;10.468;2024-01-10T14:35:40;25.48;;;13.88;;
82560;SDS011;72228;51.208;10.468;2024-01-10T14:38:06;25.92;;;13.07;;
82560;SDS011;72228;51.208;10.468;2024-01-10T14:40:33;31.13;;;12.38;;
82560;SDS011;72228;51.208;10.468;2024-01-10T14:42:59;33.38;;;13.73;;